首页
METAR-TAF:

METAR-TAF

机场 :

Peawanuck, 安大略省, 加拿大

纬度: 54-59-17N, 经度: 85-26-36W, 海拔: 53米

当前天气观测

该预报发布于59分钟前的07:00 UTC
风速7节,风向南转西南
温度 18°C
湿度 59%
气压 1004 hPa
能見度: 14.5公里
多云层高于24000英尺

METAR: CYPO 300700Z AUTO 20007KT 9SM BKN240 18/10 A2965 RMK SLP041 DENSITY ALT 900FT

时间: 03:59 (07:59 UTC)


TAF: 丢失

超过4000个机场的气象观测和天气预报(METAR&TAF报告)。

可查询的气象台以黄色和红色小点在地图上表示。

将鼠标移到小点上方,可查看气象台名称。

然后点击查看天气观测和预报。

如需切换地图:点击带黑十字的绿色按钮放大地图;点击带横线的绿色按钮缩小地图;或者点击绿色箭头查看邻近地区的地图。


METAR-TAF: